Time;durP1;ratioP1;P1;durP2;ratioP2;P2;SDS_P1;SDS_P2;PMS_P1;PMS_P2;Temp;Humidity;BMP_temperature;BMP_pressure;BME280_temperature;BME280_humidity;BME280_pressure;Samples;Min_cycle;Max_cycle;Signal;HPM_P1;HPM_P2
2022/05/06 00:01:37;;;;;;;28.63;18.90;;;15.50;64.90;;;;;;5130398;27;20027;-66
2022/05/06 00:04:04;;;;;;;29.60;19.95;;;15.40;64.90;;;;;;5125778;27;20024;-66
2022/05/06 00:06:30;;;;;;;29.20;19.98;;;15.40;65.00;;;;;;5098143;28;20337;-66
2022/05/06 00:08:57;;;;;;;30.08;19.17;;;15.40;65.10;;;;;;5118911;27;20038;-66
2022/05/06 00:11:23;;;;;;;28.05;20.00;;;15.40;65.30;;;;;;5133670;27;20027;-66
2022/05/06 00:13:52;;;;;;;32.33;20.38;;;15.40;65.40;;;;;;5117793;27;20476;-66
2022/05/06 00:16:19;;;;;;;31.23;20.90;;;15.40;65.50;;;;;;5134608;27;20080;-66
2022/05/06 00:18:45;;;;;;;28.17;19.08;;;15.40;65.60;;;;;;5134048;27;20102;-65
2022/05/06 00:21:11;;;;;;;29.98;21.20;;;15.30;65.50;;;;;;5126896;27;20110;-66
2022/05/06 00:23:36;;;;;;;30.52;20.70;;;15.30;65.60;;;;;;5116739;27;20069;-66
2022/05/06 00:26:03;;;;;;;27.58;18.90;;;15.30;65.70;;;;;;5134460;27;20471;-66
2022/05/06 00:28:29;;;;;;;32.65;21.52;;;15.30;65.80;;;;;;5134550;27;20122;-66
2022/05/06 00:30:55;;;;;;;32.38;20.75;;;15.30;65.80;;;;;;5122396;27;20050;-65
2022/05/06 00:33:24;;;;;;;30.50;20.15;;;15.20;65.80;;;;;;5133190;27;20035;-66
2022/05/06 00:35:53;;;;;;;29.92;20.70;;;15.20;65.90;;;;;;5126245;27;20444;-66
2022/05/06 00:38:19;;;;;;;29.70;20.58;;;15.20;66.10;;;;;;5126883;27;20024;-66
2022/05/06 00:40:45;;;;;;;29.92;19.25;;;15.20;66.10;;;;;;5123993;27;20460;-66
2022/05/06 00:43:11;;;;;;;32.80;20.75;;;15.10;66.20;;;;;;5114649;28;20035;-66
2022/05/06 00:45:52;;;;;;;31.48;21.27;;;15.10;66.30;;;;;;5101536;27;20088;-66
2022/05/06 00:48:22;;;;;;;31.00;20.95;;;15.10;66.50;;;;;;5135006;27;20515;-66
2022/05/06 00:50:49;;;;;;;29.15;20.38;;;15.10;66.50;;;;;;5119646;27;20023;-66
2022/05/06 00:53:15;;;;;;;35.20;20.67;;;15.00;66.60;;;;;;5118713;27;20409;-66
2022/05/06 00:55:41;;;;;;;31.10;20.02;;;15.00;66.70;;;;;;5125742;27;20113;-66
2022/05/06 00:58:07;;;;;;;29.25;21.35;;;14.90;66.80;;;;;;5125950;27;20455;-66
2022/05/06 01:00:33;;;;;;;29.92;21.02;;;14.90;66.90;;;;;;5122772;27;20071;-66
2022/05/06 01:02:59;;;;;;;30.73;21.05;;;14.90;67.00;;;;;;5120801;27;20028;-67
2022/05/06 01:05:26;;;;;;;36.05;21.08;;;14.90;67.10;;;;;;5123495;27;20347;-66
2022/05/06 01:07:52;;;;;;;33.92;21.35;;;14.90;67.20;;;;;;5119724;27;20015;-66
2022/05/06 01:10:20;;;;;;;32.75;21.27;;;14.80;67.20;;;;;;5126367;27;20028;-65
2022/05/06 01:12:47;;;;;;;31.08;20.67;;;14.80;67.30;;;;;;5124375;27;20076;-66
2022/05/06 01:15:20;;;;;;;32.27;21.83;;;14.80;67.40;;;;;;5119916;27;20031;-65
2022/05/06 01:17:48;;;;;;;32.80;21.70;;;14.80;67.50;;;;;;5126875;27;20281;-65
2022/05/06 01:20:16;;;;;;;33.17;21.67;;;14.80;67.60;;;;;;5104308;28;20023;-65
2022/05/06 01:22:50;;;;;;;30.15;20.90;;;14.80;67.70;;;;;;5124836;27;20336;-66
2022/05/06 01:25:17;;;;;;;32.58;21.38;;;14.80;67.80;;;;;;5130633;27;20031;-66
2022/05/06 01:28:03;;;;;;;33.75;21.27;;;14.80;67.80;;;;;;5125830;27;20084;-66
2022/05/06 01:30:42;;;;;;;34.75;21.70;;;14.70;68.00;;;;;;5115145;27;20031;-66
2022/05/06 01:33:10;;;;;;;32.15;21.27;;;14.70;68.10;;;;;;5127622;27;20054;-65
2022/05/06 01:35:40;;;;;;;32.22;20.85;;;14.70;68.20;;;;;;5120121;27;20362;-65
2022/05/06 01:38:07;;;;;;;32.42;23.50;;;14.70;68.40;;;;;;5102482;28;20452;-66
2022/05/06 01:40:39;;;;;;;36.88;23.63;;;14.60;68.40;;;;;;5119684;28;20023;-66
2022/05/06 01:43:07;;;;;;;36.45;23.52;;;14.60;68.50;;;;;;5119242;27;20024;-65
2022/05/06 01:45:37;;;;;;;35.05;23.58;;;14.60;68.60;;;;;;5118062;28;20024;-66
2022/05/06 01:48:04;;;;;;;33.03;22.63;;;14.50;68.70;;;;;;5125706;28;20073;-65
2022/05/06 01:50:34;;;;;;;35.55;23.90;;;14.50;68.80;;;;;;5121238;28;20096;-66
2022/05/06 01:53:01;;;;;;;37.08;24.35;;;14.50;68.90;;;;;;5117258;28;20035;-65
2022/05/06 01:55:27;;;;;;;38.20;25.13;;;14.50;69.10;;;;;;5114859;28;20119;-66
2022/05/06 01:58:02;;;;;;;42.55;26.33;;;14.50;69.20;;;;;;5126977;27;20023;-66
2022/05/06 02:00:32;;;;;;;38.30;25.52;;;14.40;69.20;;;;;;5127586;28;20055;-65
2022/05/06 02:02:58;;;;;;;40.50;27.38;;;14.40;69.40;;;;;;5124769;28;20019;-66
2022/05/06 02:05:31;;;;;;;43.85;27.58;;;14.40;69.50;;;;;;5118099;28;20111;-66
2022/05/06 02:07:57;;;;;;;40.25;26.23;;;14.40;69.70;;;;;;5112084;28;20035;-66
2022/05/06 02:10:27;;;;;;;43.65;27.17;;;14.30;69.80;;;;;;5129245;28;20035;-65
2022/05/06 02:12:59;;;;;;;48.25;28.52;;;14.30;70.00;;;;;;5108828;28;20032;-65
2022/05/06 02:15:44;;;;;;;49.45;29.08;;;14.30;70.20;;;;;;5114546;28;20050;-65
2022/05/06 02:18:26;;;;;;;45.42;28.65;;;14.30;70.30;;;;;;5132658;27;20531;-65
2022/05/06 02:21:12;;;;;;;44.85;26.33;;;14.30;70.40;;;;;;5116276;28;20034;-65
2022/05/06 02:23:54;;;;;;;44.10;26.10;;;14.20;70.60;;;;;;5133627;28;20075;-65
2022/05/06 02:26:29;;;;;;;39.95;25.75;;;14.20;70.70;;;;;;5129830;27;20035;-65
2022/05/06 02:28:58;;;;;;;41.28;27.35;;;14.20;70.90;;;;;;5130173;28;20352;-66
2022/05/06 02:34:16;;;;;;;43.20;26.65;;;14.10;71.10;;;;;;5133470;28;20054;-65
2022/05/06 02:36:44;;;;;;;41.65;26.88;;;14.10;71.30;;;;;;5128428;28;20360;-66
2022/05/06 02:39:18;;;;;;;42.17;25.13;;;14.00;71.40;;;;;;5127460;27;20028;-65
2022/05/06 02:41:45;;;;;;;40.00;26.33;;;14.00;71.60;;;;;;5118517;28;20015;-65
2022/05/06 02:44:10;;;;;;;39.80;25.45;;;14.00;71.60;;;;;;5131168;28;20015;-65
2022/05/06 02:46:41;;;;;;;38.63;24.40;;;13.90;71.60;;;;;;5129886;28;20035;-66
2022/05/06 02:49:07;;;;;;;38.35;24.65;;;13.90;71.70;;;;;;5111060;28;20050;-66
2022/05/06 02:51:32;;;;;;;34.97;23.83;;;13.90;71.70;;;;;;5116468;28;20027;-66
2022/05/06 02:53:59;;;;;;;35.28;23.08;;;13.80;71.70;;;;;;5120975;27;20096;-66
2022/05/06 02:56:30;;;;;;;35.20;22.77;;;13.70;71.80;;;;;;5113656;28;20027;-65
2022/05/06 02:58:59;;;;;;;36.03;23.25;;;13.70;71.80;;;;;;5131495;27;20039;-65
2022/05/06 03:01:29;;;;;;;35.55;22.77;;;13.70;71.90;;;;;;5119022;27;20020;-65
2022/05/06 03:03:56;;;;;;;36.80;23.17;;;13.70;71.80;;;;;;5116798;28;20028;-66
2022/05/06 03:06:22;;;;;;;34.10;22.02;;;13.70;71.80;;;;;;5116752;28;20032;-65
2022/05/06 03:08:50;;;;;;;31.13;20.92;;;13.60;71.60;;;;;;5126782;27;20363;-65
2022/05/06 03:11:20;;;;;;;28.38;20.95;;;13.60;71.60;;;;;;5116832;27;20030;-66
2022/05/06 03:13:53;;;;;;;28.25;20.27;;;13.50;71.60;;;;;;5121996;27;20371;-66
2022/05/06 03:16:22;;;;;;;26.35;18.85;;;13.50;71.70;;;;;;5101446;27;20063;-66
2022/05/06 03:18:48;;;;;;;26.33;19.20;;;13.50;71.60;;;;;;5120947;27;20043;-66
2022/05/06 03:21:14;;;;;;;24.70;18.33;;;13.50;71.60;;;;;;5102161;27;20363;-65
2022/05/06 03:23:39;;;;;;;26.67;19.92;;;13.40;71.50;;;;;;5120172;27;20031;-66
2022/05/06 03:26:05;;;;;;;24.33;17.77;;;13.30;71.40;;;;;;5122767;27;20055;-65
2022/05/06 03:28:33;;;;;;;23.63;18.85;;;13.30;71.50;;;;;;5114477;27;20041;-65
2022/05/06 03:31:00;;;;;;;23.77;18.60;;;13.30;71.40;;;;;;5123332;27;20039;-66
2022/05/06 03:33:32;;;;;;;27.02;18.60;;;13.30;71.40;;;;;;5117734;27;20028;-66
2022/05/06 03:36:04;;;;;;;24.65;18.35;;;13.30;71.30;;;;;;5117318;27;20015;-66
2022/05/06 03:38:36;;;;;;;26.95;17.65;;;13.30;71.20;;;;;;5121506;27;20015;-65
2022/05/06 03:41:02;;;;;;;22.67;17.15;;;13.30;71.10;;;;;;5134151;27;20015;-65
2022/05/06 03:43:28;;;;;;;22.88;17.42;;;13.30;71.10;;;;;;5124298;27;20215;-66
2022/05/06 03:45:58;;;;;;;23.52;17.48;;;13.30;71.00;;;;;;5116974;27;20456;-65
2022/05/06 03:48:26;;;;;;;19.83;15.30;;;13.20;71.00;;;;;;5125925;27;20050;-65
2022/05/06 03:53:42;;;;;;;19.63;15.35;;;13.20;71.00;;;;;;5125319;27;20019;-66
2022/05/06 03:56:08;;;;;;;20.05;15.43;;;13.20;70.90;;;;;;5136055;27;20033;-65
2022/05/06 03:58:39;;;;;;;21.02;15.38;;;13.20;70.90;;;;;;5130817;27;20028;-65
2022/05/06 04:01:09;;;;;;;22.00;15.65;;;13.10;70.70;;;;;;5119375;27;20402;-65
2022/05/06 04:03:38;;;;;;;20.40;15.40;;;13.10;70.70;;;;;;5123970;27;20358;-66
2022/05/06 04:06:05;;;;;;;20.50;15.48;;;13.10;70.70;;;;;;5114737;28;20055;-65
2022/05/06 04:08:32;;;;;;;19.08;13.80;;;13.10;70.60;;;;;;5118436;27;20020;-65
2022/05/06 04:10:58;;;;;;;20.58;15.45;;;13.10;70.60;;;;;;5135197;27;20060;-66
2022/05/06 04:13:25;;;;;;;19.13;14.77;;;13.10;70.50;;;;;;5124281;27;20027;-65
2022/05/06 04:15:51;;;;;;;19.67;14.93;;;13.00;70.50;;;;;;5135070;27;20030;-66
2022/05/06 04:18:18;;;;;;;19.80;14.52;;;13.00;70.60;;;;;;5130981;27;20038;-65
2022/05/06 04:23:34;;;;;;;18.65;13.93;;;12.90;70.60;;;;;;5117686;27;20479;-66
2022/05/06 04:26:11;;;;;;;17.50;13.50;;;12.90;70.50;;;;;;5122313;27;20439;-66
2022/05/06 04:28:41;;;;;;;18.25;13.32;;;12.90;70.50;;;;;;5114982;27;20027;-67
2022/05/06 04:31:07;;;;;;;20.10;15.60;;;12.80;70.50;;;;;;5115075;27;20035;-67
2022/05/06 04:33:40;;;;;;;18.10;13.77;;;12.80;70.50;;;;;;5117238;27;20462;-67
2022/05/06 04:36:09;;;;;;;16.85;12.70;;;12.80;70.50;;;;;;5114096;27;20031;-67
2022/05/06 04:38:35;;;;;;;18.42;13.30;;;12.80;70.60;;;;;;5132239;27;20453;-67
2022/05/06 04:41:03;;;;;;;17.88;14.07;;;12.80;70.50;;;;;;5117951;27;20016;-67
2022/05/06 04:43:32;;;;;;;18.23;13.20;;;12.70;70.50;;;;;;5128186;27;20018;-67
2022/05/06 04:45:58;;;;;;;18.08;13.05;;;12.70;70.60;;;;;;5117212;27;20030;-67
2022/05/06 04:48:26;;;;;;;17.20;12.57;;;12.70;70.60;;;;;;5114477;27;20379;-67
2022/05/06 04:50:53;;;;;;;17.48;12.68;;;12.70;70.60;;;;;;5130999;27;20336;-67
2022/05/06 04:53:18;;;;;;;17.27;12.77;;;12.70;70.60;;;;;;5133673;27;20031;-67
2022/05/06 04:55:48;;;;;;;16.27;12.40;;;12.70;70.60;;;;;;5112466;27;20034;-67
2022/05/06 04:58:17;;;;;;;17.00;12.48;;;12.70;70.60;;;;;;5113140;27;20459;-66
2022/05/06 05:00:43;;;;;;;16.27;12.23;;;12.70;70.60;;;;;;5122229;27;20118;-66
2022/05/06 05:03:10;;;;;;;18.52;12.48;;;12.70;70.60;;;;;;5103436;27;20111;-66
2022/05/06 05:05:36;;;;;;;16.88;12.65;;;12.70;70.60;;;;;;5121701;27;20023;-66
2022/05/06 05:08:04;;;;;;;16.98;11.90;;;12.70;70.60;;;;;;5123433;27;20390;-66
2022/05/06 05:10:31;;;;;;;17.63;13.07;;;12.70;70.50;;;;;;5130859;27;20118;-66
2022/05/06 05:12:57;;;;;;;18.63;12.23;;;12.70;70.50;;;;;;5120438;27;20059;-66
2022/05/06 05:15:28;;;;;;;17.73;12.63;;;12.70;70.50;;;;;;5122922;27;20114;-66
2022/05/06 05:17:54;;;;;;;17.30;11.93;;;12.70;70.50;;;;;;5127339;27;20118;-66
2022/05/06 05:20:20;;;;;;;18.60;12.57;;;12.70;70.50;;;;;;5121164;27;20030;-66
2022/05/06 05:22:45;;;;;;;18.88;13.60;;;12.80;70.50;;;;;;5115542;28;20027;-66
2022/05/06 05:25:14;;;;;;;18.98;13.75;;;12.80;70.60;;;;;;5097554;27;20027;-66
2022/05/06 05:27:41;;;;;;;18.10;13.77;;;12.80;70.70;;;;;;5125565;27;20344;-66
2022/05/06 05:30:12;;;;;;;16.95;11.75;;;12.80;70.80;;;;;;5105377;28;20027;-66
2022/05/06 05:32:39;;;;;;;19.60;13.10;;;12.90;70.80;;;;;;5123674;27;20043;-66
2022/05/06 05:35:07;;;;;;;17.88;13.05;;;12.90;70.90;;;;;;5127597;27;20034;-66
2022/05/06 05:37:36;;;;;;;18.25;13.23;;;13.00;70.80;;;;;;5132505;27;20212;-66
2022/05/06 05:40:06;;;;;;;19.35;13.60;;;13.00;70.80;;;;;;5129441;27;20030;-66
2022/05/06 05:42:33;;;;;;;18.90;12.80;;;13.00;70.90;;;;;;5134582;27;20030;-66
2022/05/06 05:50:38;;;;;;;16.60;11.65;;;13.20;70.90;;;;;;5126919;28;20108;-65
2022/05/06 05:53:05;;;;;;;17.50;13.23;;;13.30;70.70;;;;;;5133961;27;20031;-66
2022/05/06 05:55:31;;;;;;;16.95;12.68;;;13.50;70.50;;;;;;5124014;28;20023;-66
2022/05/06 05:57:58;;;;;;;16.50;11.93;;;13.60;70.30;;;;;;5117281;27;20031;-66
2022/05/06 06:00:25;;;;;;;17.58;13.23;;;13.60;70.10;;;;;;5124414;28;20023;-66
2022/05/06 06:02:56;;;;;;;17.33;12.93;;;13.70;70.10;;;;;;5131061;27;20092;-66
2022/05/06 06:05:23;;;;;;;17.00;12.38;;;13.80;70.00;;;;;;5120557;28;20024;-66
2022/05/06 06:07:49;;;;;;;20.17;14.68;;;13.80;69.90;;;;;;5118484;28;20493;-66
2022/05/06 06:10:17;;;;;;;18.33;13.65;;;13.80;69.90;;;;;;5124103;28;20469;-67
2022/05/06 06:12:43;;;;;;;17.92;13.38;;;13.80;69.90;;;;;;5113427;28;20027;-66
2022/05/06 06:15:10;;;;;;;20.30;14.15;;;13.90;69.90;;;;;;5115489;28;20035;-66
2022/05/06 06:17:35;;;;;;;20.48;14.38;;;13.90;69.90;;;;;;5114798;28;20042;-65
2022/05/06 06:20:05;;;;;;;21.05;15.38;;;13.90;70.00;;;;;;5120281;28;20031;-65
2022/05/06 06:22:36;;;;;;;20.23;13.82;;;13.90;70.10;;;;;;5113735;28;20440;-66
2022/05/06 06:25:04;;;;;;;19.60;14.50;;;14.00;70.10;;;;;;5111688;28;20448;-67
2022/05/06 06:27:31;;;;;;;20.80;14.70;;;14.00;70.10;;;;;;5128137;28;20039;-68
2022/05/06 06:30:03;;;;;;;18.27;12.57;;;14.00;70.20;;;;;;5120424;28;20023;-68
2022/05/06 06:32:29;;;;;;;20.00;13.98;;;14.10;70.20;;;;;;5095880;28;20082;-68
2022/05/06 06:34:55;;;;;;;18.00;13.18;;;14.10;70.20;;;;;;5113730;28;20085;-66
2022/05/06 06:37:25;;;;;;;18.45;14.23;;;14.10;70.30;;;;;;5128996;27;20023;-67
2022/05/06 06:39:51;;;;;;;17.92;14.13;;;14.20;70.20;;;;;;5103491;27;20023;-66
2022/05/06 06:42:16;;;;;;;17.25;13.30;;;14.20;70.20;;;;;;5119367;27;20015;-66
2022/05/06 06:45:07;;;;;;;17.77;12.93;;;14.30;70.20;;;;;;5117862;27;20021;-65
2022/05/06 06:47:57;;;;;;;17.15;12.65;;;14.30;70.10;;;;;;5094287;27;20072;-66
2022/05/06 06:50:48;;;;;;;18.85;14.07;;;14.30;70.00;;;;;;5101739;27;20035;-67
2022/05/06 06:53:22;;;;;;;18.40;12.52;;;14.40;70.00;;;;;;5121077;27;20030;-67
2022/05/06 06:55:48;;;;;;;20.80;14.80;;;14.40;70.00;;;;;;5120839;27;20031;-67
2022/05/06 06:58:14;;;;;;;18.08;13.02;;;14.50;70.00;;;;;;5133056;27;20119;-67
2022/05/06 07:00:42;;;;;;;17.58;14.20;;;14.50;70.00;;;;;;5128205;27;20363;-67
2022/05/06 07:03:11;;;;;;;18.92;13.95;;;14.60;70.00;;;;;;5129974;27;20045;-66
2022/05/06 07:05:37;;;;;;;20.10;14.65;;;14.70;69.80;;;;;;5121704;27;20023;-67
2022/05/06 07:13:32;;;;;;;21.70;15.80;;;14.90;69.40;;;;;;5140245;27;20034;-65
2022/05/06 07:15:58;;;;;;;18.67;14.63;;;15.10;69.20;;;;;;5122936;27;20487;-65
2022/05/06 07:18:24;;;;;;;20.90;16.08;;;15.20;69.00;;;;;;5141540;27;20462;-65
2022/05/06 07:20:49;;;;;;;21.00;15.45;;;15.30;68.80;;;;;;5117463;27;20092;-66
2022/05/06 07:23:15;;;;;;;24.63;17.17;;;15.40;68.60;;;;;;5113783;27;20038;-65
2022/05/06 07:25:41;;;;;;;25.45;17.17;;;15.50;68.50;;;;;;5115888;27;20012;-65
2022/05/06 07:28:08;;;;;;;24.10;16.85;;;15.60;68.50;;;;;;5134670;27;20340;-65
2022/05/06 07:30:34;;;;;;;23.05;16.17;;;15.70;68.40;;;;;;5137001;27;20062;-66
2022/05/06 07:32:59;;;;;;;22.58;16.20;;;15.70;68.40;;;;;;5136681;27;20042;-65
2022/05/06 07:35:25;;;;;;;21.70;16.77;;;15.70;68.50;;;;;;5136569;27;20491;-65
2022/05/06 07:37:50;;;;;;;22.00;16.80;;;15.80;68.60;;;;;;5137024;27;20026;-65
2022/05/06 07:40:16;;;;;;;22.63;16.35;;;15.90;69.10;;;;;;5137700;27;20440;-65
2022/05/06 07:42:43;;;;;;;24.70;16.88;;;15.90;68.30;;;;;;5137946;27;20076;-65
2022/05/06 07:45:13;;;;;;;23.67;16.55;;;16.00;68.40;;;;;;5137941;27;20023;-65
2022/05/06 07:47:38;;;;;;;22.63;15.05;;;16.10;68.20;;;;;;5137068;27;20023;-65
2022/05/06 07:50:05;;;;;;;21.77;15.10;;;16.30;67.90;;;;;;5136428;27;20030;-65
2022/05/06 07:52:31;;;;;;;21.85;16.38;;;16.60;67.40;;;;;;5119471;27;20063;-65
2022/05/06 07:54:56;;;;;;;23.85;16.27;;;16.80;66.90;;;;;;5118167;27;20123;-66
2022/05/06 07:57:22;;;;;;;22.85;16.83;;;16.90;66.30;;;;;;5115847;28;20028;-66
2022/05/06 07:59:48;;;;;;;25.13;16.20;;;17.00;66.20;;;;;;5117438;28;20026;-66
2022/05/06 08:04:58;;;;;;;22.42;16.00;;;17.50;65.40;;;;;;5138027;27;20054;-65
2022/05/06 08:07:24;;;;;;;20.33;14.82;;;17.70;65.50;;;;;;5136411;27;20031;-65
2022/05/06 08:09:49;;;;;;;20.42;15.52;;;17.90;64.50;;;;;;5136288;27;20031;-65
2022/05/06 08:12:15;;;;;;;21.38;15.80;;;18.10;64.00;;;;;;5137422;27;20084;-65
2022/05/06 08:14:42;;;;;;;19.13;14.52;;;18.30;63.40;;;;;;5120983;27;20038;-65
2022/05/06 08:17:08;;;;;;;19.58;14.30;;;18.50;62.90;;;;;;5119981;27;20030;-65
2022/05/06 08:19:34;;;;;;;20.60;14.73;;;18.80;62.50;;;;;;5135157;27;20378;-65
2022/05/06 08:22:00;;;;;;;18.42;14.05;;;19.00;61.90;;;;;;5137473;27;20432;-65
2022/05/06 08:24:27;;;;;;;18.55;13.18;;;19.10;61.60;;;;;;5128584;27;20035;-66
2022/05/06 08:26:52;;;;;;;20.55;14.10;;;19.30;61.20;;;;;;5118367;27;20440;-66
2022/05/06 08:29:19;;;;;;;22.73;13.45;;;19.50;60.70;;;;;;5125266;27;20088;-66
2022/05/06 08:31:45;;;;;;;16.35;12.20;;;19.70;60.40;;;;;;5125761;27;20093;-66
2022/05/06 08:34:12;;;;;;;15.77;12.07;;;19.80;60.10;;;;;;5130501;27;20027;-65
2022/05/06 08:36:45;;;;;;;15.85;11.85;;;19.90;59.60;;;;;;5129776;27;20088;-66
2022/05/06 08:39:12;;;;;;;16.40;11.75;;;20.10;59.40;;;;;;5116500;27;20024;-65
2022/05/06 08:41:38;;;;;;;16.48;12.43;;;20.20;59.10;;;;;;5135455;27;20030;-65
2022/05/06 08:50:50;;;;;;;17.20;11.80;;;20.40;58.70;;;;;;5135167;27;20119;-65
2022/05/06 08:52:40;;;;;;;13.88;9.82;;;20.60;57.70;;;;;;5136914;27;20070;-65
2022/05/06 08:55:06;;;;;;;14.43;10.27;;;20.70;57.70;;;;;;5120370;27;20043;-65
2022/05/06 08:57:32;;;;;;;13.90;9.93;;;20.80;57.50;;;;;;5126671;27;20077;-65
2022/05/06 08:59:58;;;;;;;14.18;10.40;;;20.80;57.20;;;;;;5117743;27;20367;-65
2022/05/06 09:02:23;;;;;;;14.07;10.07;;;20.90;57.10;;;;;;5132876;27;20083;-65
2022/05/06 09:04:49;;;;;;;16.27;9.73;;;21.00;56.80;;;;;;5117382;27;20020;-65
2022/05/06 09:07:21;;;;;;;12.68;9.23;;;21.00;56.70;;;;;;5115456;27;20031;-65
2022/05/06 09:10:13;;;;;;;15.27;9.70;;;21.10;56.70;;;;;;5114435;28;20032;-65
2022/05/06 09:12:44;;;;;;;12.60;8.93;;;21.20;56.30;;;;;;5123209;27;20490;-65
2022/05/06 09:17:56;;;;;;;11.07;8.25;;;21.30;55.90;;;;;;5116418;28;20028;-65
2022/05/06 09:20:23;;;;;;;13.35;9.50;;;21.40;55.70;;;;;;5115551;28;20047;-65
2022/05/06 09:22:52;;;;;;;12.52;8.77;;;21.40;55.40;;;;;;5115413;27;20026;-65
2022/05/06 09:25:40;;;;;;;13.23;8.68;;;21.50;55.40;;;;;;5115555;28;20043;-65
2022/05/06 09:28:19;;;;;;;13.70;9.60;;;21.60;55.20;;;;;;5128405;27;20337;-65
2022/05/06 09:30:59;;;;;;;12.27;8.77;;;21.70;54.80;;;;;;5115910;27;20440;-65
2022/05/06 09:33:34;;;;;;;12.23;9.05;;;21.70;54.60;;;;;;5116339;27;20399;-65
2022/05/06 09:36:22;;;;;;;11.43;8.25;;;21.80;54.70;;;;;;5116703;27;20028;-65
2022/05/06 09:39:21;;;;;;;12.05;7.85;;;22.00;54.40;;;;;;5132398;27;20463;-65
2022/05/06 09:41:48;;;;;;;11.60;8.30;;;22.10;54.20;;;;;;5095507;28;20140;-63
2022/05/06 09:44:14;;;;;;;9.43;7.30;;;22.10;54.00;;;;;;5133914;27;20027;-62
2022/05/06 09:46:39;;;;;;;10.25;7.03;;;22.30;54.40;;;;;;5134545;27;20035;-63
2022/05/06 09:49:06;;;;;;;10.88;7.35;;;22.40;53.60;;;;;;5114998;28;20096;-63
2022/05/06 09:51:34;;;;;;;11.85;7.35;;;22.40;53.50;;;;;;5113673;28;20036;-62
2022/05/06 09:54:03;;;;;;;10.95;7.50;;;22.50;53.30;;;;;;5133759;28;20023;-65
2022/05/06 09:56:29;;;;;;;10.43;7.55;;;22.50;53.10;;;;;;5133022;27;20114;-65
2022/05/06 09:58:57;;;;;;;11.45;7.90;;;22.60;52.80;;;;;;5118066;27;20031;-66
2022/05/06 10:01:23;;;;;;;9.75;6.68;;;22.60;52.60;;;;;;5125286;28;20098;-66
2022/05/06 10:03:51;;;;;;;9.40;6.88;;;22.70;52.70;;;;;;5117181;28;20095;-65
2022/05/06 10:06:17;;;;;;;10.07;7.15;;;22.90;52.50;;;;;;5126945;28;20110;-65
2022/05/06 10:08:49;;;;;;;10.05;6.55;;;23.00;52.10;;;;;;5137863;27;20168;-65
2022/05/06 10:11:21;;;;;;;9.77;6.55;;;23.00;52.00;;;;;;5142458;27;20042;-65
2022/05/06 10:13:49;;;;;;;10.05;6.70;;;23.10;51.90;;;;;;5136401;27;20106;-67
2022/05/06 10:16:14;;;;;;;9.52;6.03;;;23.10;51.70;;;;;;5123555;27;20360;-67
2022/05/06 10:18:42;;;;;;;9.00;6.10;;;23.20;51.60;;;;;;5132330;27;20019;-66
2022/05/06 10:21:12;;;;;;;12.52;6.82;;;23.30;51.40;;;;;;5109425;27;20020;-66
2022/05/06 10:23:48;;;;;;;10.40;5.93;;;23.40;50.90;;;;;;5124712;27;20020;-67
2022/05/06 10:26:35;;;;;;;8.43;5.85;;;23.60;50.80;;;;;;5126269;27;20503;-67
2022/05/06 10:34:55;;;;;;;9.75;6.30;;;23.70;49.90;;;;;;5119827;27;20046;-67
2022/05/06 10:37:21;;;;;;;8.77;5.43;;;23.70;49.60;;;;;;5135911;27;20471;-65
2022/05/06 10:39:47;;;;;;;8.18;4.93;;;23.80;49.70;;;;;;5137969;27;20461;-65
2022/05/06 10:42:17;;;;;;;9.25;5.05;;;23.80;49.70;;;;;;5119421;27;20027;-66
2022/05/06 10:44:44;;;;;;;7.90;5.00;;;23.90;49.60;;;;;;5121937;27;20024;-65
2022/05/06 10:47:13;;;;;;;6.82;4.20;;;24.00;49.40;;;;;;5134116;27;20027;-65
2022/05/06 10:49:46;;;;;;;6.80;4.25;;;24.00;49.20;;;;;;5133699;27;20556;-65
2022/05/06 10:52:23;;;;;;;7.93;4.38;;;24.00;49.10;;;;;;5138568;27;20031;-65
2022/05/06 10:55:03;;;;;;;6.80;3.80;;;24.00;48.50;;;;;;5138709;27;20031;-65
2022/05/06 10:57:44;;;;;;;6.27;3.33;;;24.00;48.40;;;;;;5138750;27;20023;-65
2022/05/06 11:00:10;;;;;;;8.98;4.00;;;24.00;48.10;;;;;;5138197;27;20046;-65
2022/05/06 11:02:38;;;;;;;6.40;3.65;;;24.10;47.80;;;;;;5137579;27;20350;-65
2022/05/06 11:05:11;;;;;;;6.28;3.60;;;24.10;47.50;;;;;;5134487;27;20039;-66
2022/05/06 11:07:38;;;;;;;7.20;4.05;;;24.10;47.50;;;;;;5124124;27;20038;-66
2022/05/06 11:10:17;;;;;;;6.47;3.58;;;24.10;47.30;;;;;;5130396;27;20027;-67
2022/05/06 11:12:48;;;;;;;5.45;2.90;;;24.10;47.00;;;;;;5120148;27;20062;-66
2022/05/06 11:15:16;;;;;;;6.38;3.35;;;24.10;47.00;;;;;;5118355;27;20036;-67
2022/05/06 11:17:43;;;;;;;6.30;3.28;;;24.20;46.90;;;;;;5124064;27;20474;-67
2022/05/06 11:20:22;;;;;;;6.60;3.55;;;24.20;46.80;;;;;;5119377;27;20032;-67
2022/05/06 11:22:52;;;;;;;6.43;3.35;;;24.20;46.70;;;;;;5118918;27;20351;-69
2022/05/06 11:25:18;;;;;;;6.60;3.80;;;24.10;46.60;;;;;;5119513;27;20107;-67
2022/05/06 11:27:45;;;;;;;6.47;3.53;;;24.10;46.60;;;;;;5117738;27;20144;-68
2022/05/06 11:30:17;;;;;;;6.60;3.40;;;24.00;46.60;;;;;;5135376;27;20109;-68
2022/05/06 11:32:56;;;;;;;7.90;3.83;;;24.10;46.50;;;;;;5117106;27;20051;-67
2022/05/06 11:35:27;;;;;;;6.85;3.58;;;24.10;46.30;;;;;;5132664;27;20027;-69
2022/05/06 11:37:53;;;;;;;6.57;3.63;;;24.10;46.20;;;;;;5123394;27;20043;-69
2022/05/06 11:42:53;;;;;;;6.10;3.13;;;24.20;45.90;;;;;;5122892;27;20039;-68
2022/05/06 11:48:04;;;;;;;5.93;3.50;;;24.10;45.90;;;;;;5124123;27;20102;-67
2022/05/06 11:50:33;;;;;;;5.32;2.70;;;24.20;45.90;;;;;;5133044;27;20055;-67
2022/05/06 11:52:59;;;;;;;5.82;3.13;;;24.10;46.20;;;;;;5122243;27;20119;-67
2022/05/06 11:55:26;;;;;;;6.57;3.00;;;24.10;45.80;;;;;;5134833;27;20312;-67
2022/05/06 11:57:52;;;;;;;6.82;3.38;;;24.10;45.90;;;;;;5137649;27;20038;-67
2022/05/06 12:00:19;;;;;;;6.25;3.30;;;24.10;45.60;;;;;;5135164;27;20340;-67
2022/05/06 12:02:49;;;;;;;5.25;3.28;;;24.00;45.40;;;;;;5122749;27;20031;-67
2022/05/06 12:05:15;;;;;;;5.40;3.00;;;24.00;45.50;;;;;;5122634;27;20106;-67
2022/05/06 12:07:46;;;;;;;5.75;2.97;;;23.90;45.60;;;;;;5127282;27;20076;-67
2022/05/06 12:10:23;;;;;;;7.32;2.95;;;23.90;45.60;;;;;;5134445;27;20090;-65
2022/05/06 12:12:54;;;;;;;6.47;3.47;;;23.90;45.60;;;;;;5128098;27;20027;-65
2022/05/06 12:15:27;;;;;;;5.15;2.55;;;23.80;45.40;;;;;;5135410;27;20445;-65
2022/05/06 12:18:01;;;;;;;6.25;3.05;;;23.80;45.60;;;;;;5117047;27;20406;-65
2022/05/06 12:20:34;;;;;;;7.18;3.08;;;23.70;45.60;;;;;;5146900;27;20023;-66
2022/05/06 12:23:00;;;;;;;5.32;2.58;;;23.70;45.70;;;;;;5124510;27;20019;-66
2022/05/06 12:25:27;;;;;;;8.13;3.08;;;23.60;45.70;;;;;;5126382;27;20036;-67
2022/05/06 12:28:09;;;;;;;4.88;2.80;;;23.50;45.70;;;;;;5131269;27;20062;-66
2022/05/06 12:30:38;;;;;;;6.10;3.25;;;23.50;45.50;;;;;;5126155;27;20348;-68
2022/05/06 12:33:15;;;;;;;5.50;2.88;;;23.30;45.50;;;;;;5119761;27;20066;-68
2022/05/06 12:36:04;;;;;;;5.80;2.90;;;23.30;45.60;;;;;;5126120;27;20412;-68
2022/05/06 12:38:36;;;;;;;7.70;3.03;;;23.20;45.40;;;;;;5096346;27;20043;-67
2022/05/06 12:41:19;;;;;;;6.57;2.85;;;23.20;45.50;;;;;;5117385;27;20130;-66
2022/05/06 12:43:51;;;;;;;5.80;2.78;;;23.10;45.40;;;;;;5116942;27;20043;-68
2022/05/06 12:46:26;;;;;;;7.45;2.70;;;23.00;45.60;;;;;;5126410;27;20448;-66
2022/05/06 12:51:40;;;;;;;5.07;2.50;;;22.90;45.60;;;;;;5116555;27;20102;-67
2022/05/06 12:54:06;;;;;;;5.03;2.50;;;22.90;45.60;;;;;;5119738;27;20039;-66
2022/05/06 12:56:32;;;;;;;7.15;2.85;;;22.90;45.60;;;;;;5137030;27;20035;-66
2022/05/06 12:58:58;;;;;;;5.03;2.55;;;22.90;45.50;;;;;;5129874;27;20024;-66
2022/05/06 13:01:24;;;;;;;6.18;2.45;;;22.90;45.50;;;;;;5136167;27;20432;-66
2022/05/06 13:03:49;;;;;;;5.80;2.83;;;22.80;45.30;;;;;;5110829;27;20023;-67
2022/05/06 13:06:15;;;;;;;6.85;2.75;;;22.80;45.20;;;;;;5136107;27;20080;-67
2022/05/06 13:08:41;;;;;;;7.05;3.13;;;22.80;45.20;;;;;;5125947;27;20027;-67
2022/05/06 13:11:07;;;;;;;5.55;3.03;;;22.70;45.10;;;;;;5135155;27;20088;-65
2022/05/06 13:13:32;;;;;;;5.57;2.80;;;22.70;45.20;;;;;;5127888;27;20019;-66
2022/05/06 13:15:59;;;;;;;6.22;3.05;;;22.70;45.30;;;;;;5124040;27;20073;-67
2022/05/06 13:18:25;;;;;;;7.05;3.28;;;22.60;45.30;;;;;;5129613;27;20035;-65
2022/05/06 13:20:51;;;;;;;7.05;3.45;;;22.60;45.90;;;;;;5135938;27;20031;-66
2022/05/06 13:23:16;;;;;;;6.60;3.20;;;22.60;45.40;;;;;;5131282;27;20075;-66
2022/05/06 13:25:42;;;;;;;9.27;3.13;;;22.50;45.40;;;;;;5124522;27;20478;-66
2022/05/06 13:28:08;;;;;;;5.72;3.20;;;22.60;45.50;;;;;;5112881;27;20038;-66